createdAt,value
2022-08-01T00:02:01.912Z,89.70
2022-08-01T00:04:28.811Z,90.00
2022-08-01T00:06:55.509Z,90.10
2022-08-01T00:09:23.751Z,90.00
2022-08-01T00:11:59.521Z,90.10
2022-08-01T00:14:32.076Z,90.30
2022-08-01T00:17:02.595Z,90.30
2022-08-01T00:19:33.968Z,90.40
2022-08-01T00:22:00.713Z,90.50
2022-08-01T00:24:27.453Z,90.60
2022-08-01T00:26:54.074Z,90.40
2022-08-01T00:30:12.381Z,90.60
2022-08-01T00:32:07.748Z,90.50
2022-08-01T00:34:35.052Z,90.70
2022-08-01T00:37:01.804Z,90.80
2022-08-01T00:39:28.465Z,90.80
2022-08-01T00:41:59.334Z,91.10
2022-08-01T00:44:27.161Z,91.30
2022-08-01T00:46:53.788Z,91.30
2022-08-01T00:49:20.657Z,91.40
2022-08-01T00:51:47.407Z,91.50
2022-08-01T00:54:16.594Z,91.60
2022-08-01T00:56:43.701Z,91.70
2022-08-01T00:59:12.003Z,91.60
2022-08-01T01:01:40.981Z,92.10
2022-08-01T01:04:13.359Z,91.90
2022-08-01T01:06:40.713Z,92.00
2022-08-01T01:09:07.335Z,92.30
2022-08-01T01:11:39.657Z,92.50
2022-08-01T01:14:10.012Z,92.50
2022-08-01T01:16:38.606Z,92.60
2022-08-01T01:19:09.645Z,92.90
2022-08-01T01:21:47.248Z,92.90
2022-08-01T01:24:13.879Z,93.10
2022-08-01T01:26:53.455Z,93.20
2022-08-01T01:29:31.498Z,93.20
2022-08-01T01:32:20.668Z,93.30
2022-08-01T01:34:57.650Z,93.40
2022-08-01T01:37:26.151Z,93.80
2022-08-01T01:39:54.035Z,93.90
2022-08-01T01:42:21.877Z,93.90
2022-08-01T01:44:49.229Z,93.90
2022-08-01T01:47:17.265Z,94.00
2022-08-01T01:49:45.189Z,94.20
2022-08-01T01:52:13.589Z,94.20
2022-08-01T01:54:41.566Z,94.50
2022-08-01T01:57:09.717Z,94.60
2022-08-01T01:59:38.681Z,95.00
2022-08-01T02:02:07.067Z,95.00
2022-08-01T02:04:36.932Z,95.10
2022-08-01T02:07:03.949Z,95.20
2022-08-01T02:09:32.064Z,95.40
2022-08-01T02:12:08.713Z,95.50
2022-08-01T02:14:36.638Z,95.50
2022-08-01T02:17:05.164Z,95.70
2022-08-01T02:19:32.940Z,95.80
2022-08-01T02:22:11.604Z,95.90
2022-08-01T02:24:41.240Z,96.20
2022-08-01T02:27:10.017Z,96.20
2022-08-01T02:29:56.918Z,96.10
2022-08-01T02:32:52.704Z,96.40
2022-08-01T02:35:23.577Z,96.50
2022-08-01T02:37:50.810Z,96.80
2022-08-01T02:40:18.351Z,97.00
2022-08-01T02:42:48.448Z,97.00
2022-08-01T02:45:18.233Z,97.10
2022-08-01T02:47:44.998Z,97.40
2022-08-01T02:50:13.395Z,97.70
2022-08-01T02:52:41.128Z,98.10
2022-08-01T02:55:09.335Z,98.50
2022-08-01T02:57:52.173Z,98.70
2022-08-01T03:00:19.981Z,98.80
2022-08-01T03:02:49.471Z,99.20
2022-08-01T03:05:18.117Z,99.20
2022-08-01T03:07:44.949Z,99.50
2022-08-01T03:10:17.067Z,99.70
2022-08-01T03:12:44.878Z,99.90
2022-08-01T03:15:14.076Z,99.90
2022-08-01T03:17:42.182Z,99.90
2022-08-01T03:20:11.800Z,99.90
2022-08-01T03:22:39.905Z,99.90
2022-08-01T03:25:07.286Z,99.90
2022-08-01T03:27:34.177Z,99.90
2022-08-01T03:30:03.364Z,99.90
2022-08-01T03:32:30.915Z,99.90
2022-08-01T03:34:58.276Z,99.90
2022-08-01T03:37:28.933Z,99.90
2022-08-01T03:40:03.155Z,99.90
2022-08-01T03:42:34.149Z,99.90
2022-08-01T03:45:04.748Z,99.90
2022-08-01T03:47:33.579Z,99.90
2022-08-01T03:50:03.042Z,99.90
2022-08-01T03:52:31.437Z,99.90
2022-08-01T03:54:59.540Z,99.90
2022-08-01T03:57:35.529Z,99.90
2022-08-01T04:00:07.230Z,99.90
2022-08-01T04:02:39.421Z,99.90
2022-08-01T04:05:06.505Z,99.90
2022-08-01T04:07:36.547Z,99.90
2022-08-01T04:10:03.627Z,99.90
2022-08-01T04:12:30.283Z,99.90
2022-08-01T04:14:57.009Z,99.90
2022-08-01T04:17:23.676Z,99.90
2022-08-01T04:19:50.386Z,99.90
2022-08-01T04:22:17.220Z,99.90
2022-08-01T04:24:53.347Z,99.90
2022-08-01T04:27:51.510Z,99.90
2022-08-01T04:30:12.577Z,99.90
2022-08-01T04:32:45.889Z,99.90
2022-08-01T04:35:23.426Z,99.90
2022-08-01T04:38:02.625Z,99.90
2022-08-01T04:40:29.459Z,99.90
2022-08-01T04:42:56.580Z,99.90
2022-08-01T04:45:23.363Z,99.90
2022-08-01T04:47:50.270Z,99.90
2022-08-01T04:50:17.285Z,99.90
2022-08-01T04:52:43.896Z,99.90
2022-08-01T04:55:11.205Z,99.90
2022-08-01T04:57:39.900Z,99.90
2022-08-01T05:00:07.511Z,99.90
2022-08-01T05:02:34.154Z,99.90
2022-08-01T05:05:00.905Z,99.90
2022-08-01T05:07:27.535Z,99.90
2022-08-01T05:09:54.223Z,99.90
2022-08-01T05:12:21.672Z,99.90
2022-08-01T05:14:48.340Z,99.90
2022-08-01T05:17:15.018Z,99.90
2022-08-01T05:19:43.867Z,99.90
2022-08-01T05:22:10.684Z,99.90
2022-08-01T05:24:40.185Z,99.90
2022-08-01T05:27:08.831Z,99.90
2022-08-01T05:29:43.999Z,99.90
2022-08-01T05:32:11.206Z,99.90
2022-08-01T05:34:37.868Z,99.90
2022-08-01T05:37:04.550Z,99.90
2022-08-01T05:39:31.490Z,99.90
2022-08-01T05:41:58.139Z,99.90
2022-08-01T05:44:25.054Z,99.90
2022-08-01T05:46:51.920Z,99.90
2022-08-01T05:49:18.902Z,99.90
2022-08-01T05:51:45.604Z,99.90
2022-08-01T05:54:12.289Z,99.90
2022-08-01T05:56:38.954Z,99.90
2022-08-01T05:59:05.752Z,99.90
2022-08-01T06:01:32.420Z,99.90
2022-08-01T06:03:59.059Z,99.90
2022-08-01T06:06:25.745Z,99.90
2022-08-01T06:08:52.941Z,99.90
2022-08-01T06:11:19.810Z,99.90
2022-08-01T06:13:48.702Z,99.90
2022-08-01T06:16:16.060Z,99.90
2022-08-01T06:18:42.783Z,99.90
2022-08-01T06:21:09.542Z,99.90
2022-08-01T06:23:38.382Z,99.90
2022-08-01T06:26:05.261Z,99.90
2022-08-01T06:28:31.999Z,99.90
2022-08-01T06:31:00.091Z,99.90
2022-08-01T06:33:27.630Z,99.90
2022-08-01T06:35:54.432Z,99.90
2022-08-01T06:38:21.084Z,99.90
2022-08-01T06:40:47.927Z,99.90
2022-08-01T06:43:14.661Z,99.90
2022-08-01T06:45:41.397Z,99.90
2022-08-01T06:48:08.083Z,99.90
2022-08-01T06:50:36.688Z,99.90
2022-08-01T06:53:03.770Z,99.90
2022-08-01T06:55:30.640Z,99.90
2022-08-01T06:57:57.360Z,99.90
2022-08-01T07:00:25.174Z,99.90
2022-08-01T07:02:56.785Z,99.90
2022-08-01T07:05:23.551Z,99.90
2022-08-01T07:07:50.330Z,99.90
2022-08-01T07:10:17.448Z,99.90
2022-08-01T07:12:44.341Z,99.90
2022-08-01T07:15:11.528Z,99.90
2022-08-01T07:17:39.533Z,99.90
2022-08-01T07:20:07.326Z,99.80
2022-08-01T07:22:37.708Z,99.40
2022-08-01T07:25:05.907Z,99.10
2022-08-01T07:27:32.814Z,98.20
2022-08-01T07:29:59.497Z,97.70
2022-08-01T07:32:26.230Z,98.00
2022-08-01T07:34:52.921Z,97.30
2022-08-01T07:37:47.196Z,97.10
2022-08-01T07:40:06.663Z,97.30
2022-08-01T07:42:33.285Z,96.90
2022-08-01T07:44:59.934Z,96.90
2022-08-01T07:47:26.869Z,96.60
2022-08-01T07:49:59.699Z,96.70
2022-08-01T07:52:27.886Z,96.50
2022-08-01T07:54:54.883Z,96.30
2022-08-01T07:57:21.568Z,96.40
2022-08-01T07:59:48.219Z,96.20
2022-08-01T08:02:15.142Z,96.30
2022-08-01T08:04:44.668Z,96.00
2022-08-01T08:07:15.130Z,96.20
2022-08-01T08:09:41.810Z,95.90
2022-08-01T08:12:08.927Z,95.60
2022-08-01T08:14:35.929Z,95.90
2022-08-01T08:17:03.362Z,95.50
2022-08-01T08:19:38.006Z,95.50
2022-08-01T08:22:06.740Z,95.70
2022-08-01T08:24:33.748Z,95.50
2022-08-01T08:27:01.098Z,95.80
2022-08-01T08:29:30.522Z,95.30
2022-08-01T08:31:57.324Z,95.10
2022-08-01T08:34:24.163Z,95.10
2022-08-01T08:36:50.972Z,95.30
2022-08-01T08:39:19.773Z,95.00
2022-08-01T08:41:49.313Z,94.40
2022-08-01T08:44:17.287Z,94.90
2022-08-01T08:46:45.696Z,94.80
2022-08-01T08:49:13.306Z,94.50
2022-08-01T08:51:42.233Z,94.00
2022-08-01T08:54:11.437Z,94.30
2022-08-01T08:56:38.420Z,93.90
2022-08-01T08:59:05.082Z,93.90
2022-08-01T09:01:35.961Z,93.90
2022-08-01T09:04:03.798Z,93.50
2022-08-01T09:06:32.418Z,93.40
2022-08-01T09:08:59.320Z,93.50
2022-08-01T09:11:26.664Z,93.30
2022-08-01T09:14:04.504Z,92.80
2022-08-01T09:16:32.101Z,92.70
2022-08-01T09:19:08.723Z,92.70
2022-08-01T09:21:57.104Z,92.60
2022-08-01T09:24:28.422Z,92.50
2022-08-01T09:26:58.482Z,91.90
2022-08-01T09:29:37.331Z,91.20
2022-08-01T09:32:06.254Z,91.50
2022-08-01T09:34:33.971Z,91.50
2022-08-01T09:37:03.157Z,91.10
2022-08-01T09:39:31.584Z,90.90
2022-08-01T09:41:59.612Z,91.10
2022-08-01T09:44:44.188Z,90.80
2022-08-01T09:47:15.661Z,91.10
2022-08-01T09:49:50.377Z,91.50
2022-08-01T09:52:19.929Z,91.00
2022-08-01T09:54:54.110Z,91.60
2022-08-01T09:57:22.185Z,90.80
2022-08-01T09:59:59.726Z,91.10
2022-08-01T10:02:28.774Z,90.60
2022-08-01T10:04:59.955Z,89.60
2022-08-01T10:07:42.850Z,89.80
2022-08-01T10:10:15.805Z,89.30
2022-08-01T10:12:44.476Z,89.70
2022-08-01T10:15:15.384Z,87.80
2022-08-01T10:17:50.698Z,88.10
2022-08-01T10:20:29.849Z,88.80
2022-08-01T10:22:59.517Z,86.90
2022-08-01T10:25:42.190Z,86.70
2022-08-01T10:28:23.621Z,87.30
2022-08-01T10:30:52.190Z,87.90
2022-08-01T10:33:52.231Z,86.50
2022-08-01T10:36:10.039Z,85.60
2022-08-01T10:38:37.482Z,86.50
2022-08-01T10:41:08.619Z,85.40
2022-08-01T10:43:36.391Z,83.40
2022-08-01T10:46:04.668Z,83.00
2022-08-01T10:48:40.472Z,82.80
2022-08-01T10:51:18.461Z,81.90
2022-08-01T10:53:50.915Z,81.20
2022-08-01T10:56:26.485Z,81.50
2022-08-01T10:59:02.257Z,80.70
2022-08-01T11:01:33.994Z,78.40
2022-08-01T11:04:05.994Z,76.30
2022-08-01T11:06:35.458Z,78.80
2022-08-01T11:09:05.872Z,78.70
2022-08-01T11:11:37.606Z,77.70
2022-08-01T11:14:08.064Z,76.70
2022-08-01T11:16:37.135Z,78.10
2022-08-01T11:19:04.990Z,76.90
2022-08-01T11:21:56.328Z,75.40
2022-08-01T11:24:50.721Z,75.70
2022-08-01T11:27:20.701Z,76.60
2022-08-01T11:30:09.105Z,74.30
2022-08-01T11:33:06.532Z,73.90
2022-08-01T11:35:37.091Z,72.40
2022-08-01T11:38:22.418Z,71.60
2022-08-01T11:41:09.109Z,70.60
2022-08-01T11:43:35.760Z,71.70
2022-08-01T11:46:03.069Z,72.00
2022-08-01T11:48:29.756Z,71.70
2022-08-01T11:50:57.895Z,69.50
2022-08-01T11:53:28.686Z,68.70
2022-08-01T11:55:55.735Z,68.40
2022-08-01T11:58:27.787Z,67.20
2022-08-01T12:00:58.879Z,66.50
2022-08-01T12:03:33.845Z,67.50
2022-08-01T12:06:00.997Z,66.20
2022-08-01T12:08:33.825Z,65.00
2022-08-01T12:11:02.370Z,65.10
2022-08-01T12:13:39.767Z,65.00
2022-08-01T12:16:10.505Z,66.70
2022-08-01T12:18:41.373Z,68.30
2022-08-01T12:21:08.030Z,67.80
2022-08-01T12:23:34.677Z,67.90
2022-08-01T12:26:02.526Z,67.00
2022-08-01T12:28:29.238Z,65.90
2022-08-01T12:30:56.460Z,66.70
2022-08-01T12:33:23.211Z,65.40
2022-08-01T12:35:49.895Z,65.00
2022-08-01T12:38:17.697Z,65.00
2022-08-01T12:40:45.947Z,64.80
2022-08-01T12:43:26.775Z,64.10
2022-08-01T12:45:57.284Z,63.20
2022-08-01T12:48:25.043Z,62.50
2022-08-01T12:50:53.190Z,62.60
2022-08-01T12:53:20.043Z,63.70
2022-08-01T12:55:58.102Z,63.80
2022-08-01T12:58:33.142Z,62.30
2022-08-01T13:01:04.792Z,61.50
2022-08-01T13:03:31.549Z,61.30
2022-08-01T13:05:59.218Z,61.70
2022-08-01T13:08:33.446Z,62.40
2022-08-01T13:11:05.728Z,61.90
2022-08-01T13:13:39.812Z,60.30
2022-08-01T13:16:07.235Z,61.50
2022-08-01T13:18:35.948Z,60.10
2022-08-01T13:21:10.084Z,60.30
2022-08-01T13:24:03.140Z,60.20
2022-08-01T13:26:38.478Z,58.30
2022-08-01T13:29:06.445Z,59.20
2022-08-01T13:31:34.370Z,59.60
2022-08-01T13:34:04.551Z,59.30
2022-08-01T13:36:32.119Z,59.70
2022-08-01T13:39:17.967Z,60.60
2022-08-01T13:41:45.117Z,61.10
2022-08-01T13:44:11.978Z,61.50
2022-08-01T13:46:39.409Z,61.40
2022-08-01T13:49:16.522Z,61.70
2022-08-01T13:51:43.516Z,62.50
2022-08-01T13:54:10.219Z,62.60
2022-08-01T13:56:36.967Z,62.80
2022-08-01T13:59:03.920Z,62.00
2022-08-01T14:01:34.145Z,62.10
2022-08-01T14:04:01.561Z,60.60
2022-08-01T14:06:28.301Z,60.10
2022-08-01T14:08:55.183Z,59.70
2022-08-01T14:11:21.945Z,59.90
2022-08-01T14:13:48.600Z,60.80
2022-08-01T14:16:15.504Z,61.10
2022-08-01T14:18:44.176Z,61.80
2022-08-01T14:21:11.601Z,61.20
2022-08-01T14:23:38.449Z,60.60
2022-08-01T14:26:11.552Z,60.70
2022-08-01T14:28:39.015Z,60.10
2022-08-01T14:31:07.155Z,59.90
2022-08-01T14:33:34.279Z,60.60
2022-08-01T14:36:20.631Z,61.70
2022-08-01T14:38:48.088Z,62.20
2022-08-01T14:41:15.118Z,61.80
2022-08-01T14:43:41.793Z,62.10
2022-08-01T14:46:10.772Z,62.40
2022-08-01T14:48:37.529Z,61.90
2022-08-01T14:51:05.159Z,61.90
2022-08-01T14:53:35.683Z,62.80
2022-08-01T14:56:06.262Z,63.80
2022-08-01T14:58:33.181Z,63.20
2022-08-01T15:00:59.869Z,64.00
2022-08-01T15:03:26.710Z,64.50
2022-08-01T15:05:53.396Z,65.40
2022-08-01T15:08:20.162Z,65.70
2022-08-01T15:10:46.998Z,66.10
2022-08-01T15:13:13.643Z,66.20
2022-08-01T15:15:40.285Z,66.40
2022-08-01T15:18:06.932Z,66.80
2022-08-01T15:20:34.016Z,67.00
2022-08-01T15:23:00.784Z,67.30
2022-08-01T15:25:41.236Z,67.90
2022-08-01T15:28:09.780Z,68.00
2022-08-01T15:30:36.497Z,68.30
2022-08-01T15:33:03.248Z,68.20
2022-08-01T15:35:30.003Z,68.50
2022-08-01T15:37:56.756Z,68.70
2022-08-01T15:40:23.427Z,68.80
2022-08-01T15:42:50.180Z,69.00
2022-08-01T15:45:44.507Z,69.30
2022-08-01T15:48:06.049Z,69.60
2022-08-01T15:50:32.794Z,70.00
2022-08-01T15:52:59.495Z,70.40
2022-08-01T15:55:26.140Z,70.60
2022-08-01T15:57:52.826Z,70.10
2022-08-01T16:00:19.498Z,70.50
2022-08-01T16:02:46.993Z,70.60
2022-08-01T16:05:13.734Z,71.30
2022-08-01T16:07:59.580Z,70.60
2022-08-01T16:10:29.120Z,71.00
2022-08-01T16:12:55.887Z,70.80
2022-08-01T16:15:23.011Z,71.00
2022-08-01T16:18:03.055Z,71.00
2022-08-01T16:20:29.978Z,71.30
2022-08-01T16:22:56.618Z,71.70
2022-08-01T16:25:23.494Z,72.30
2022-08-01T16:27:50.172Z,72.50
2022-08-01T16:30:16.988Z,72.50
2022-08-01T16:32:43.755Z,72.50
2022-08-01T16:35:13.601Z,72.70
2022-08-01T16:37:40.451Z,72.90
2022-08-01T16:40:07.281Z,73.60
2022-08-01T16:42:34.068Z,73.30
2022-08-01T16:45:02.396Z,73.70
2022-08-01T16:47:35.722Z,73.90
2022-08-01T16:50:02.519Z,74.80
2022-08-01T16:52:29.158Z,74.50
2022-08-01T16:54:57.987Z,75.20
2022-08-01T16:57:24.647Z,75.10
2022-08-01T16:59:51.314Z,75.20
2022-08-01T17:02:17.961Z,76.10
2022-08-01T17:04:44.658Z,75.70
2022-08-01T17:07:11.429Z,75.90
2022-08-01T17:09:42.943Z,75.80
2022-08-01T17:12:11.773Z,77.30
2022-08-01T17:14:39.873Z,81.10
2022-08-01T17:17:06.963Z,84.50
2022-08-01T17:19:35.276Z,90.10
2022-08-01T17:22:02.277Z,91.60
2022-08-01T17:24:29.115Z,91.70
2022-08-01T17:26:55.754Z,92.80
2022-08-01T17:29:22.542Z,93.70
2022-08-01T17:31:49.293Z,94.50
2022-08-01T17:34:16.729Z,95.70
2022-08-01T17:36:43.637Z,96.50
2022-08-01T17:39:12.329Z,97.10
2022-08-01T17:41:39.731Z,98.60
2022-08-01T17:44:06.767Z,99.10
2022-08-01T17:46:33.489Z,99.30
2022-08-01T17:49:04.528Z,99.90
2022-08-01T17:51:31.515Z,99.90
2022-08-01T17:53:58.238Z,99.90
2022-08-01T17:56:26.195Z,99.90
2022-08-01T17:58:52.969Z,99.90
2022-08-01T18:01:19.970Z,99.90
2022-08-01T18:03:47.202Z,99.90
2022-08-01T18:06:23.162Z,99.90
2022-08-01T18:08:50.817Z,99.90
2022-08-01T18:11:22.418Z,99.90
2022-08-01T18:13:51.395Z,99.90
2022-08-01T18:16:18.772Z,99.90
2022-08-01T18:18:45.594Z,99.90
2022-08-01T18:21:12.376Z,99.90
2022-08-01T18:23:39.150Z,99.90
2022-08-01T18:26:08.263Z,99.90
2022-08-01T18:28:46.708Z,99.90
2022-08-01T18:31:16.697Z,99.90
2022-08-01T18:33:43.829Z,99.90
2022-08-01T18:36:14.105Z,99.90
2022-08-01T18:38:55.789Z,99.90
2022-08-01T18:41:22.970Z,99.90
2022-08-01T18:43:49.701Z,99.90
2022-08-01T18:46:16.491Z,99.90
2022-08-01T18:48:43.432Z,99.90
2022-08-01T18:51:11.734Z,99.90
2022-08-01T18:57:31.857Z,99.90
2022-08-01T18:59:58.721Z,99.90
2022-08-01T19:02:25.337Z,99.90
2022-08-01T19:04:51.962Z,99.90
2022-08-01T19:07:39.292Z,99.90
2022-08-01T19:10:05.659Z,99.90
2022-08-01T19:12:32.451Z,99.90
2022-08-01T19:15:04.350Z,99.90
2022-08-01T19:17:31.952Z,99.90
2022-08-01T19:19:58.854Z,99.90
2022-08-01T19:22:25.495Z,99.90
2022-08-01T19:24:52.447Z,99.90
2022-08-01T19:27:21.837Z,99.90
2022-08-01T19:29:52.146Z,99.90
2022-08-01T19:32:19.217Z,99.90
2022-08-01T19:34:54.605Z,99.90
2022-08-01T19:37:26.772Z,99.90
2022-08-01T19:39:54.230Z,99.90
2022-08-01T19:42:23.898Z,99.90
2022-08-01T19:44:51.037Z,99.90
2022-08-01T19:47:18.036Z,99.90
2022-08-01T19:49:45.051Z,99.90
2022-08-01T19:52:13.656Z,99.90
2022-08-01T19:54:45.478Z,99.90
2022-08-01T19:57:13.240Z,99.90
2022-08-01T19:59:40.129Z,99.90
2022-08-01T20:02:07.755Z,99.90
2022-08-01T20:04:34.746Z,99.90
2022-08-01T20:07:03.034Z,99.90
2022-08-01T20:09:30.989Z,99.90
2022-08-01T20:11:57.652Z,99.90
2022-08-01T20:14:25.113Z,99.90
2022-08-01T20:16:53.077Z,99.90
2022-08-01T20:19:20.144Z,99.90
2022-08-01T20:22:02.588Z,99.90
2022-08-01T20:24:31.934Z,99.90
2022-08-01T20:26:59.522Z,99.90
2022-08-01T20:29:27.868Z,99.90
2022-08-01T20:31:55.083Z,99.90
2022-08-01T20:34:22.746Z,99.90
2022-08-01T20:36:56.904Z,99.90
2022-08-01T20:39:24.140Z,99.90
2022-08-01T20:42:00.026Z,99.90
2022-08-01T20:44:27.262Z,99.90
2022-08-01T20:46:54.260Z,99.90
2022-08-01T20:49:22.183Z,99.90
2022-08-01T20:51:50.690Z,99.90
2022-08-01T20:54:17.504Z,99.90
2022-08-01T20:57:04.800Z,99.90
2022-08-01T20:59:55.773Z,99.90
2022-08-01T21:02:30.489Z,99.90
2022-08-01T21:04:58.159Z,99.90
2022-08-01T21:07:26.799Z,99.90
2022-08-01T21:10:09.762Z,99.90
2022-08-01T21:12:56.691Z,99.90
2022-08-01T21:15:31.552Z,99.90
2022-08-01T21:17:58.213Z,99.90
2022-08-01T21:20:27.779Z,99.90
2022-08-01T21:23:03.624Z,99.90
2022-08-01T21:25:32.847Z,99.90
2022-08-01T21:28:00.828Z,99.90
2022-08-01T21:30:29.376Z,99.90
2022-08-01T21:32:56.270Z,99.90
2022-08-01T21:35:24.722Z,99.90
2022-08-01T21:37:53.009Z,99.90
2022-08-01T21:40:20.685Z,99.90
2022-08-01T21:42:48.637Z,99.90
2022-08-01T21:45:15.374Z,99.90
2022-08-01T21:47:42.775Z,99.90
2022-08-01T21:50:09.533Z,99.90
2022-08-01T21:52:46.987Z,99.90
2022-08-01T21:55:36.454Z,99.90
2022-08-01T21:58:11.227Z,99.90
2022-08-01T22:00:40.057Z,99.90
2022-08-01T22:03:28.776Z,99.90
2022-08-01T22:05:55.898Z,99.90
2022-08-01T22:08:31.967Z,99.90
2022-08-01T22:10:59.950Z,99.90
2022-08-01T22:13:26.756Z,99.90
2022-08-01T22:15:55.621Z,99.90
2022-08-01T22:18:22.294Z,99.90
2022-08-01T22:20:49.173Z,99.90
2022-08-01T22:23:16.673Z,99.90
2022-08-01T22:25:45.228Z,99.90
2022-08-01T22:28:15.330Z,99.90
2022-08-01T22:30:42.193Z,99.90
2022-08-01T22:33:16.468Z,99.90
2022-08-01T22:35:45.597Z,99.90
2022-08-01T22:38:12.359Z,99.90
2022-08-01T22:40:39.949Z,99.90
2022-08-01T22:43:12.515Z,99.90
2022-08-01T22:45:59.919Z,99.90
2022-08-01T22:48:34.740Z,99.90
2022-08-01T22:51:24.861Z,99.90
2022-08-01T22:53:54.779Z,99.90
2022-08-01T22:56:22.286Z,99.90
2022-08-01T22:58:49.033Z,99.90
2022-08-01T23:01:21.051Z,99.90
2022-08-01T23:03:50.332Z,99.90
2022-08-01T23:06:35.980Z,99.90
2022-08-01T23:09:02.867Z,99.90
2022-08-01T23:11:29.859Z,99.90
2022-08-01T23:14:00.068Z,99.90
2022-08-01T23:16:28.376Z,99.90
2022-08-01T23:18:55.842Z,99.90
2022-08-01T23:21:22.541Z,99.90
2022-08-01T23:23:49.547Z,99.90
2022-08-01T23:26:16.386Z,99.90
2022-08-01T23:28:43.616Z,99.90
2022-08-01T23:31:11.127Z,99.90
2022-08-01T23:33:37.814Z,99.90
2022-08-01T23:36:04.657Z,99.90
2022-08-01T23:38:31.318Z,99.90
2022-08-01T23:40:57.996Z,99.90
2022-08-01T23:43:24.759Z,99.90
2022-08-01T23:46:04.021Z,99.90
2022-08-01T23:48:35.749Z,99.90
2022-08-01T23:51:03.281Z,99.90
2022-08-01T23:53:31.100Z,99.90
2022-08-01T23:55:58.584Z,99.90
2022-08-01T23:58:25.320Z,99.90
